NOZ1151 EDDL-ENGM
Flight info
| Callsign | NOZ1151 |
|---|---|
| Flight time | 1h 40m |
| Altitude | 35000 |
| Route | MEVEL4T MEVEL L179 OSNAD M170 BASUM DCT DOSUR/N0442F340 DCT AMSEV/N0445F350 DCT PIPEX DCT ULMUG DCT RIPAM |
| Aircraft | B38M/M-SDE2E3GHIJ1LRWXY/LB2 |
Departure
| Time | 2026-05-03 23:35 |
|---|---|
| Airport | Düsseldorf Airport (EDDL) |
Arrival
| Time | 2026-05-04 01:16 |
|---|---|
| Airport | Oslo-Gardermoen International Airport (ENGM) |
| Time | Latitude | Longitude | Altitude | Speed | Heading |
|---|---|---|---|---|---|
| 2026-05-03 23:08 | 51.28109 | 6.76538 | 131 ft | 0 kts | 96° |
| 2026-05-03 23:23 | 51.28109 | 6.76526 | 130 ft | 2 kts | 93° |
| 2026-05-03 23:23 | 51.28109 | 6.76499 | 127 ft | 2 kts | 83° |
| 2026-05-03 23:24 | 51.28106 | 6.76473 | 127 ft | 2 kts | 66° |
| 2026-05-03 23:24 | 51.28096 | 6.76452 | 127 ft | 2 kts | 36° |
| 2026-05-03 23:24 | 51.28081 | 6.76442 | 128 ft | 2 kts | 359° |
| 2026-05-03 23:24 | 51.28069 | 6.76445 | 127 ft | 1 kts | 335° |
| 2026-05-03 23:25 | 51.28068 | 6.76446 | 128 ft | 0 kts | 333° |
| 2026-05-03 23:28 | 51.28074 | 6.76442 | 128 ft | 2 kts | 333° |
| 2026-05-03 23:28 | 51.28098 | 6.76423 | 127 ft | 6 kts | 340° |
| 2026-05-03 23:28 | 51.28150 | 6.76425 | 130 ft | 9 kts | 6° |
| 2026-05-03 23:28 | 51.28218 | 6.76439 | 129 ft | 11 kts | 9° |
| 2026-05-03 23:29 | 51.28268 | 6.76501 | 127 ft | 10 kts | 54° |
| 2026-05-03 23:29 | 51.28319 | 6.76610 | 126 ft | 14 kts | 52° |
| 2026-05-03 23:29 | 51.28381 | 6.76694 | 127 ft | 10 kts | 1° |
| 2026-05-03 23:29 | 51.28443 | 6.76684 | 128 ft | 8 kts | 31° |
| 2026-05-03 23:30 | 51.28483 | 6.76763 | 125 ft | 10 kts | 52° |
| 2026-05-03 23:30 | 51.28526 | 6.76854 | 127 ft | 11 kts | 52° |
| 2026-05-03 23:30 | 51.28574 | 6.76953 | 130 ft | 12 kts | 53° |
| 2026-05-03 23:30 | 51.28627 | 6.77064 | 132 ft | 13 kts | 53° |
| 2026-05-03 23:31 | 51.28687 | 6.77192 | 132 ft | 15 kts | 53° |
| 2026-05-03 23:31 | 51.28757 | 6.77338 | 132 ft | 17 kts | 52° |
| 2026-05-03 23:31 | 51.28835 | 6.77501 | 132 ft | 19 kts | 52° |
| 2026-05-03 23:31 | 51.28920 | 6.77681 | 132 ft | 21 kts | 52° |
| 2026-05-03 23:32 | 51.29013 | 6.77875 | 132 ft | 17 kts | 52° |
| 2026-05-03 23:32 | 51.29081 | 6.78017 | 133 ft | 17 kts | 53° |
| 2026-05-03 23:32 | 51.29150 | 6.78163 | 137 ft | 16 kts | 52° |
| 2026-05-03 23:32 | 51.29221 | 6.78283 | 142 ft | 15 kts | 35° |
| 2026-05-03 23:33 | 51.29263 | 6.78330 | 144 ft | 0 kts | 36° |
| 2026-05-03 23:33 | 51.29265 | 6.78332 | 144 ft | 2 kts | 36° |
| 2026-05-03 23:33 | 51.29307 | 6.78382 | 146 ft | 13 kts | 37° |
| 2026-05-03 23:33 | 51.29404 | 6.78468 | 151 ft | 17 kts | 2° |
| 2026-05-03 23:34 | 51.29487 | 6.78430 | 151 ft | 9 kts | 293° |
| 2026-05-03 23:34 | 51.29473 | 6.78370 | 150 ft | 6 kts | 228° |
| 2026-05-03 23:34 | 51.29454 | 6.78335 | 149 ft | 0 kts | 232° |
| 2026-05-03 23:34 | 51.29388 | 6.78196 | 145 ft | 46 kts | 233° |
| 2026-05-03 23:35 | 51.29059 | 6.77504 | 132 ft | 108 kts | 233° |
| 2026-05-03 23:35 | 51.28504 | 6.76339 | 134 ft | 154 kts | 233° |
| 2026-05-03 23:35 | 51.27842 | 6.74961 | 545 ft | 162 kts | 234° |
| 2026-05-03 23:35 | 51.27140 | 6.73444 | 958 ft | 174 kts | 234° |
| 2026-05-03 23:36 | 51.26823 | 6.71667 | 1693 ft | 166 kts | 276° |
| 2026-05-03 23:36 | 51.27325 | 6.69896 | 2002 ft | 193 kts | 307° |
| 2026-05-03 23:36 | 51.28468 | 6.68646 | 2408 ft | 216 kts | 340° |
| 2026-05-03 23:36 | 51.30057 | 6.68515 | 2768 ft | 241 kts | 4° |
| 2026-05-03 23:37 | 51.31783 | 6.68778 | 3257 ft | 253 kts | 2° |
| 2026-05-03 23:37 | 51.33532 | 6.68989 | 3880 ft | 263 kts | 1° |
| 2026-05-03 23:37 | 51.35416 | 6.69203 | 4306 ft | 279 kts | 1° |
| 2026-05-03 23:37 | 51.37380 | 6.69419 | 5064 ft | 280 kts | 1° |
| 2026-05-03 23:38 | 51.39309 | 6.69546 | 5726 ft | 284 kts | 357° |
| 2026-05-03 23:38 | 51.41322 | 6.69539 | 6408 ft | 288 kts | 356° |
| 2026-05-03 23:38 | 51.43310 | 6.69540 | 7062 ft | 291 kts | 357° |
| 2026-05-03 23:38 | 51.45346 | 6.69546 | 7722 ft | 294 kts | 357° |
| 2026-05-03 23:39 | 51.47399 | 6.69555 | 8380 ft | 297 kts | 357° |
| 2026-05-03 23:39 | 51.49480 | 6.69566 | 9048 ft | 300 kts | 357° |
| 2026-05-03 23:39 | 51.51582 | 6.69577 | 9707 ft | 304 kts | 357° |
| 2026-05-03 23:39 | 51.53709 | 6.69590 | 10241 ft | 311 kts | 357° |
| 2026-05-03 23:40 | 51.55945 | 6.69603 | 10459 ft | 329 kts | 357° |
| 2026-05-03 23:40 | 51.58283 | 6.69618 | 10794 ft | 341 kts | 357° |
| 2026-05-03 23:40 | 51.60648 | 6.70087 | 11426 ft | 347 kts | 16° |
| 2026-05-03 23:40 | 51.62782 | 6.71915 | 12076 ft | 352 kts | 39° |
| 2026-05-03 23:41 | 51.64405 | 6.74856 | 12753 ft | 354 kts | 54° |
| 2026-05-03 23:41 | 51.65882 | 6.78069 | 13435 ft | 358 kts | 53° |
| 2026-05-03 23:41 | 51.67376 | 6.81302 | 14110 ft | 362 kts | 54° |
| 2026-05-03 23:41 | 51.68883 | 6.84575 | 14755 ft | 365 kts | 54° |
| 2026-05-03 23:42 | 51.70402 | 6.87882 | 15406 ft | 369 kts | 54° |
| 2026-05-03 23:42 | 51.71415 | 6.90090 | 15829 ft | 371 kts | 54° |
| 2026-05-03 23:42 | 51.72959 | 6.93461 | 16450 ft | 376 kts | 54° |
| 2026-05-03 23:42 | 51.74518 | 6.96870 | 17068 ft | 379 kts | 54° |
| 2026-05-03 23:43 | 51.76090 | 7.00309 | 17675 ft | 383 kts | 54° |
| 2026-05-03 23:43 | 51.77679 | 7.03793 | 18255 ft | 387 kts | 54° |
| 2026-05-03 23:43 | 51.79284 | 7.07313 | 18764 ft | 391 kts | 54° |
| 2026-05-03 23:43 | 51.80900 | 7.10865 | 19264 ft | 394 kts | 54° |
| 2026-05-03 23:44 | 51.82530 | 7.14451 | 19750 ft | 398 kts | 54° |
| 2026-05-03 23:44 | 51.84173 | 7.18071 | 20232 ft | 401 kts | 54° |
| 2026-05-03 23:44 | 51.85755 | 7.21796 | 20700 ft | 403 kts | 62° |
| 2026-05-03 23:44 | 51.87067 | 7.25820 | 21184 ft | 406 kts | 63° |
| 2026-05-03 23:45 | 51.88378 | 7.29826 | 21664 ft | 409 kts | 63° |
| 2026-05-03 23:45 | 51.89730 | 7.33970 | 22154 ft | 413 kts | 63° |
| 2026-05-03 23:45 | 51.91058 | 7.38047 | 22627 ft | 416 kts | 63° |
| 2026-05-03 23:45 | 51.92409 | 7.42206 | 23134 ft | 419 kts | 63° |
| 2026-05-03 23:46 | 51.93770 | 7.46399 | 23624 ft | 422 kts | 63° |
| 2026-05-03 23:46 | 51.95146 | 7.50638 | 24040 ft | 426 kts | 63° |
| 2026-05-03 23:46 | 51.96527 | 7.54902 | 24467 ft | 430 kts | 63° |
| 2026-05-03 23:46 | 51.97921 | 7.59212 | 24902 ft | 433 kts | 63° |
| 2026-05-03 23:47 | 51.99322 | 7.63553 | 25319 ft | 436 kts | 63° |
| 2026-05-03 23:47 | 52.00733 | 7.67929 | 25719 ft | 439 kts | 63° |
| 2026-05-03 23:47 | 52.02151 | 7.72337 | 26128 ft | 442 kts | 63° |
| 2026-05-03 23:47 | 52.03577 | 7.76778 | 26521 ft | 445 kts | 63° |
| 2026-05-03 23:48 | 52.05013 | 7.81257 | 26919 ft | 448 kts | 63° |
| 2026-05-03 23:48 | 52.06452 | 7.85756 | 27299 ft | 452 kts | 63° |
| 2026-05-03 23:48 | 52.07907 | 7.90311 | 27695 ft | 455 kts | 63° |
| 2026-05-03 23:48 | 52.09364 | 7.94882 | 28068 ft | 458 kts | 63° |
| 2026-05-03 23:49 | 52.10834 | 7.99501 | 28452 ft | 460 kts | 63° |
| 2026-05-03 23:49 | 52.12185 | 8.03755 | 28764 ft | 463 kts | 63° |
| 2026-05-03 23:49 | 52.13492 | 8.07877 | 29097 ft | 466 kts | 63° |
| 2026-05-03 23:49 | 52.14979 | 8.12577 | 29463 ft | 468 kts | 63° |
| 2026-05-03 23:50 | 52.16473 | 8.17305 | 29828 ft | 471 kts | 63° |
| 2026-05-03 23:50 | 52.17975 | 8.22060 | 30138 ft | 474 kts | 62° |
| 2026-05-03 23:50 | 52.19775 | 8.26547 | 30432 ft | 475 kts | 47° |
| 2026-05-03 23:50 | 52.22234 | 8.30101 | 30748 ft | 472 kts | 31° |
| 2026-05-03 23:51 | 52.25082 | 8.32781 | 30993 ft | 474 kts | 27° |
| 2026-05-03 23:51 | 52.27977 | 8.35389 | 31236 ft | 477 kts | 26° |
| 2026-05-03 23:51 | 52.30899 | 8.37981 | 31533 ft | 479 kts | 26° |
| 2026-05-03 23:51 | 52.33764 | 8.40497 | 31791 ft | 481 kts | 26° |
| 2026-05-03 23:52 | 52.36722 | 8.43086 | 32062 ft | 483 kts | 26° |
| 2026-05-03 23:52 | 52.39695 | 8.45690 | 32322 ft | 486 kts | 26° |
| 2026-05-03 23:52 | 52.42682 | 8.48308 | 32589 ft | 488 kts | 26° |
| 2026-05-03 23:52 | 52.45685 | 8.50945 | 32845 ft | 491 kts | 26° |
| 2026-05-03 23:53 | 52.48697 | 8.53594 | 33106 ft | 493 kts | 26° |
| 2026-05-03 23:53 | 52.51723 | 8.56259 | 33391 ft | 494 kts | 26° |
| 2026-05-03 23:53 | 52.54747 | 8.58926 | 33727 ft | 494 kts | 26° |
| 2026-05-03 23:53 | 52.57786 | 8.61610 | 34052 ft | 494 kts | 26° |
| 2026-05-03 23:54 | 52.60690 | 8.64177 | 34358 ft | 493 kts | 26° |
| 2026-05-03 23:54 | 52.63668 | 8.66817 | 34670 ft | 493 kts | 27° |
| 2026-05-03 23:54 | 52.66674 | 8.69483 | 35000 ft | 491 kts | 27° |
| 2026-05-03 23:54 | 52.69682 | 8.72156 | 35334 ft | 490 kts | 27° |
| 2026-05-03 23:55 | 52.72673 | 8.74818 | 35676 ft | 488 kts | 27° |
| 2026-05-03 23:55 | 52.75672 | 8.77395 | 35985 ft | 485 kts | 20° |
| 2026-05-03 23:55 | 52.78885 | 8.78920 | 36319 ft | 477 kts | 5° |
| 2026-05-03 23:55 | 52.82168 | 8.79640 | 36591 ft | 476 kts | 4° |
| 2026-05-03 23:56 | 52.85453 | 8.80326 | 36825 ft | 475 kts | 4° |
| 2026-05-03 23:56 | 52.88741 | 8.80977 | 37092 ft | 475 kts | 4° |
| 2026-05-03 23:56 | 52.92017 | 8.81599 | 37365 ft | 474 kts | 4° |
| 2026-05-03 23:56 | 52.95285 | 8.82212 | 37634 ft | 472 kts | 4° |
| 2026-05-03 23:57 | 52.98541 | 8.82821 | 37896 ft | 471 kts | 4° |
| 2026-05-03 23:57 | 53.01796 | 8.83429 | 38139 ft | 470 kts | 4° |
| 2026-05-03 23:57 | 53.05047 | 8.84038 | 38381 ft | 469 kts | 4° |
| 2026-05-03 23:57 | 53.07546 | 8.84507 | 38556 ft | 469 kts | 4° |
| 2026-05-03 23:58 | 53.10790 | 8.85115 | 38734 ft | 468 kts | 4° |
| 2026-05-03 23:58 | 53.14022 | 8.85723 | 38874 ft | 468 kts | 4° |
| 2026-05-03 23:58 | 53.20501 | 8.86943 | 38910 ft | 468 kts | 4° |
| 2026-05-03 23:59 | 53.26963 | 8.88164 | 38912 ft | 468 kts | 4° |
| 2026-05-03 23:59 | 53.33435 | 8.89391 | 38910 ft | 468 kts | 4° |
| 2026-05-04 00:00 | 53.39909 | 8.90622 | 38903 ft | 469 kts | 4° |
| 2026-05-04 00:00 | 53.46396 | 8.91859 | 38900 ft | 469 kts | 4° |
| 2026-05-04 00:01 | 53.52894 | 8.93102 | 38893 ft | 470 kts | 4° |
| 2026-05-04 00:01 | 53.59394 | 8.94350 | 38894 ft | 471 kts | 4° |
| 2026-05-04 00:02 | 53.65805 | 8.95583 | 38894 ft | 470 kts | 4° |
| 2026-05-04 00:02 | 53.72309 | 8.96840 | 38892 ft | 471 kts | 4° |
| 2026-05-04 00:03 | 53.78810 | 8.98099 | 38886 ft | 470 kts | 4° |
| 2026-05-04 00:03 | 53.85308 | 8.99362 | 38887 ft | 470 kts | 4° |
| 2026-05-04 00:04 | 53.91807 | 9.00628 | 38885 ft | 470 kts | 3° |
| 2026-05-04 00:04 | 53.98258 | 9.01889 | 38885 ft | 470 kts | 3° |
| 2026-05-04 00:05 | 54.04749 | 9.03163 | 38882 ft | 469 kts | 3° |
| 2026-05-04 00:05 | 54.11235 | 9.04439 | 38879 ft | 469 kts | 3° |
| 2026-05-04 00:06 | 54.17711 | 9.05717 | 38886 ft | 469 kts | 3° |
| 2026-05-04 00:06 | 54.24190 | 9.06999 | 38871 ft | 468 kts | 3° |
| 2026-05-04 00:07 | 54.30664 | 9.08285 | 38876 ft | 468 kts | 3° |
| 2026-05-04 00:07 | 54.37136 | 9.09575 | 38873 ft | 468 kts | 3° |
| 2026-05-04 00:08 | 54.43606 | 9.10868 | 38865 ft | 468 kts | 3° |
| 2026-05-04 00:08 | 54.50078 | 9.12166 | 38862 ft | 468 kts | 3° |
| 2026-05-04 00:09 | 54.56550 | 9.13468 | 38864 ft | 468 kts | 3° |
| 2026-05-04 00:09 | 54.63015 | 9.14772 | 38862 ft | 468 kts | 3° |
| 2026-05-04 00:10 | 54.69486 | 9.16082 | 38863 ft | 468 kts | 3° |
| 2026-05-04 00:10 | 54.75763 | 9.17356 | 38867 ft | 468 kts | 3° |
| 2026-05-04 00:11 | 54.82231 | 9.18666 | 38865 ft | 468 kts | 3° |
| 2026-05-04 00:11 | 54.88677 | 9.19030 | 38864 ft | 460 kts | 351° |
| 2026-05-04 00:12 | 54.95099 | 9.18214 | 38855 ft | 463 kts | 352° |
| 2026-05-04 00:12 | 55.01532 | 9.17382 | 38846 ft | 463 kts | 352° |
| 2026-05-04 00:13 | 55.07962 | 9.16543 | 38839 ft | 463 kts | 352° |
| 2026-05-04 00:13 | 55.14399 | 9.15700 | 38834 ft | 464 kts | 352° |
| 2026-05-04 00:14 | 55.20834 | 9.14854 | 38833 ft | 464 kts | 352° |
| 2026-05-04 00:14 | 55.26781 | 9.14070 | 38835 ft | 464 kts | 352° |
| 2026-05-04 00:15 | 55.33230 | 9.13218 | 38836 ft | 464 kts | 351° |
| 2026-05-04 00:15 | 55.39671 | 9.12363 | 38834 ft | 465 kts | 352° |
| 2026-05-04 00:16 | 55.46078 | 9.11510 | 38832 ft | 465 kts | 351° |
| 2026-05-04 00:16 | 55.52524 | 9.10650 | 38835 ft | 465 kts | 351° |
| 2026-05-04 00:17 | 55.58978 | 9.09785 | 38837 ft | 465 kts | 351° |
| 2026-05-04 00:17 | 55.65422 | 9.08920 | 38830 ft | 465 kts | 351° |
| 2026-05-04 00:18 | 55.71889 | 9.08047 | 38830 ft | 465 kts | 351° |
| 2026-05-04 00:18 | 55.78342 | 9.07174 | 38832 ft | 465 kts | 351° |
| 2026-05-04 00:19 | 55.84797 | 9.06298 | 38831 ft | 465 kts | 351° |
| 2026-05-04 00:19 | 55.91257 | 9.05418 | 38835 ft | 465 kts | 351° |
| 2026-05-04 00:20 | 55.97709 | 9.04536 | 38843 ft | 465 kts | 351° |
| 2026-05-04 00:20 | 56.04176 | 9.03649 | 38862 ft | 465 kts | 351° |
| 2026-05-04 00:21 | 56.10623 | 9.02763 | 38859 ft | 465 kts | 351° |
| 2026-05-04 00:21 | 56.17081 | 9.01871 | 38861 ft | 465 kts | 351° |
| 2026-05-04 00:22 | 56.23533 | 9.00977 | 38858 ft | 465 kts | 351° |
| 2026-05-04 00:22 | 56.29988 | 9.00081 | 38858 ft | 465 kts | 351° |
| 2026-05-04 00:23 | 56.36441 | 8.99180 | 38861 ft | 465 kts | 351° |
| 2026-05-04 00:23 | 56.42894 | 8.98278 | 38859 ft | 465 kts | 351° |
| 2026-05-04 00:24 | 56.49339 | 8.97373 | 38862 ft | 465 kts | 351° |
| 2026-05-04 00:24 | 56.55755 | 8.96470 | 38855 ft | 465 kts | 351° |
| 2026-05-04 00:25 | 56.62205 | 8.95558 | 38850 ft | 465 kts | 351° |
| 2026-05-04 00:25 | 56.68664 | 8.94641 | 38855 ft | 465 kts | 351° |
| 2026-05-04 00:26 | 56.75117 | 8.93723 | 38856 ft | 465 kts | 351° |
| 2026-05-04 00:26 | 56.81572 | 8.92801 | 38845 ft | 465 kts | 351° |
| 2026-05-04 00:27 | 56.88026 | 8.91876 | 38852 ft | 465 kts | 351° |
| 2026-05-04 00:27 | 56.94492 | 8.90946 | 38853 ft | 466 kts | 351° |
| 2026-05-04 00:28 | 57.00945 | 8.90015 | 38852 ft | 465 kts | 351° |
| 2026-05-04 00:28 | 57.07403 | 8.89080 | 38844 ft | 465 kts | 351° |
| 2026-05-04 00:29 | 57.13851 | 8.88143 | 38845 ft | 465 kts | 351° |
| 2026-05-04 00:29 | 57.20310 | 8.87201 | 38838 ft | 465 kts | 351° |
| 2026-05-04 00:30 | 57.26762 | 8.86257 | 38837 ft | 465 kts | 351° |
| 2026-05-04 00:30 | 57.33210 | 8.85310 | 38831 ft | 465 kts | 351° |
| 2026-05-04 00:31 | 57.38568 | 8.84520 | 38831 ft | 465 kts | 351° |
| 2026-05-04 00:31 | 57.45014 | 8.83568 | 38826 ft | 465 kts | 351° |
| 2026-05-04 00:32 | 57.51458 | 8.82613 | 38823 ft | 465 kts | 351° |
| 2026-05-04 00:32 | 57.57899 | 8.81655 | 38816 ft | 464 kts | 351° |
| 2026-05-04 00:33 | 57.67567 | 8.80317 | 38808 ft | 467 kts | 358° |
| 2026-05-04 00:34 | 57.74066 | 8.81534 | 38804 ft | 471 kts | 1° |
| 2026-05-04 00:34 | 57.80582 | 8.82814 | 38807 ft | 471 kts | 2° |
| 2026-05-04 00:35 | 57.87100 | 8.84117 | 38805 ft | 471 kts | 2° |
| 2026-05-04 00:35 | 57.93615 | 8.85424 | 38799 ft | 471 kts | 2° |
| 2026-05-04 00:36 | 58.00126 | 8.86735 | 38797 ft | 471 kts | 2° |
| 2026-05-04 00:36 | 58.06649 | 8.88055 | 38796 ft | 471 kts | 2° |
| 2026-05-04 00:37 | 58.13169 | 8.89377 | 38794 ft | 471 kts | 2° |
| 2026-05-04 00:37 | 58.19677 | 8.90703 | 38788 ft | 471 kts | 2° |
| 2026-05-04 00:38 | 58.26193 | 8.92035 | 38791 ft | 470 kts | 2° |
| 2026-05-04 00:38 | 58.32702 | 8.93370 | 38791 ft | 470 kts | 2° |
| 2026-05-04 00:39 | 58.39208 | 8.94711 | 38790 ft | 470 kts | 2° |
| 2026-05-04 00:39 | 58.45708 | 8.96054 | 38788 ft | 470 kts | 2° |
| 2026-05-04 00:40 | 58.52214 | 8.97404 | 38789 ft | 470 kts | 2° |
| 2026-05-04 00:40 | 58.55462 | 8.98080 | 38684 ft | 468 kts | 2° |
| 2026-05-04 00:40 | 58.58695 | 8.98753 | 37888 ft | 470 kts | 1° |
| 2026-05-04 00:40 | 58.61929 | 8.99428 | 36899 ft | 477 kts | 1° |
| 2026-05-04 00:41 | 58.65219 | 9.00117 | 36363 ft | 473 kts | 1° |
| 2026-05-04 00:41 | 58.68464 | 9.00798 | 36003 ft | 466 kts | 1° |
| 2026-05-04 00:41 | 58.71669 | 9.01470 | 35524 ft | 462 kts | 1° |
| 2026-05-04 00:41 | 58.74865 | 9.02142 | 34966 ft | 461 kts | 1° |
| 2026-05-04 00:42 | 58.78047 | 9.02813 | 34449 ft | 459 kts | 1° |
| 2026-05-04 00:42 | 58.81212 | 9.03492 | 33938 ft | 459 kts | 2° |
| 2026-05-04 00:42 | 58.84324 | 9.05007 | 33264 ft | 468 kts | 20° |
| 2026-05-04 00:42 | 58.87156 | 9.08143 | 32630 ft | 472 kts | 35° |
| 2026-05-04 00:43 | 58.89772 | 9.12070 | 31715 ft | 477 kts | 36° |
| 2026-05-04 00:43 | 58.92381 | 9.16005 | 30777 ft | 476 kts | 37° |
| 2026-05-04 00:43 | 58.94955 | 9.19941 | 30248 ft | 464 kts | 37° |
| 2026-05-04 00:43 | 58.97447 | 9.23779 | 29866 ft | 450 kts | 37° |
| 2026-05-04 00:44 | 58.99863 | 9.27512 | 29380 ft | 438 kts | 37° |
| 2026-05-04 00:44 | 59.02222 | 9.31164 | 28936 ft | 432 kts | 37° |
| 2026-05-04 00:44 | 59.04554 | 9.34782 | 28516 ft | 428 kts | 37° |
| 2026-05-04 00:44 | 59.06872 | 9.38383 | 28094 ft | 425 kts | 37° |
| 2026-05-04 00:45 | 59.09175 | 9.41968 | 27695 ft | 422 kts | 37° |
| 2026-05-04 00:45 | 59.11454 | 9.45524 | 27296 ft | 419 kts | 37° |
| 2026-05-04 00:45 | 59.13715 | 9.49056 | 26888 ft | 416 kts | 37° |
| 2026-05-04 00:45 | 59.15967 | 9.52582 | 26502 ft | 414 kts | 37° |
| 2026-05-04 00:46 | 59.18205 | 9.56081 | 26115 ft | 411 kts | 36° |
| 2026-05-04 00:46 | 59.20564 | 9.59186 | 25639 ft | 409 kts | 30° |
| 2026-05-04 00:46 | 59.22944 | 9.62207 | 25260 ft | 407 kts | 30° |
| 2026-05-04 00:46 | 59.25297 | 9.65245 | 24883 ft | 405 kts | 31° |
| 2026-05-04 00:47 | 59.27640 | 9.68297 | 24496 ft | 403 kts | 31° |
| 2026-05-04 00:47 | 59.29967 | 9.71346 | 24116 ft | 401 kts | 31° |
| 2026-05-04 00:47 | 59.32303 | 9.74307 | 23715 ft | 398 kts | 24° |
| 2026-05-04 00:47 | 59.34870 | 9.76132 | 23287 ft | 390 kts | 9° |
| 2026-05-04 00:48 | 59.37473 | 9.77557 | 22907 ft | 387 kts | 11° |
| 2026-05-04 00:48 | 59.40047 | 9.79013 | 22549 ft | 383 kts | 11° |
| 2026-05-04 00:48 | 59.42600 | 9.80441 | 22194 ft | 379 kts | 11° |
| 2026-05-04 00:48 | 59.45130 | 9.81852 | 21835 ft | 376 kts | 11° |
| 2026-05-04 00:49 | 59.47598 | 9.83230 | 21498 ft | 372 kts | 11° |
| 2026-05-04 00:49 | 59.50075 | 9.84613 | 21143 ft | 369 kts | 10° |
| 2026-05-04 00:49 | 59.52537 | 9.85990 | 20804 ft | 366 kts | 10° |
| 2026-05-04 00:49 | 59.54977 | 9.87356 | 20467 ft | 364 kts | 10° |
| 2026-05-04 00:50 | 59.57407 | 9.88718 | 20120 ft | 362 kts | 10° |
| 2026-05-04 00:50 | 59.59817 | 9.90072 | 19783 ft | 359 kts | 10° |
| 2026-05-04 00:50 | 59.62207 | 9.91417 | 19449 ft | 356 kts | 10° |
| 2026-05-04 00:50 | 59.64582 | 9.92754 | 19119 ft | 353 kts | 10° |
| 2026-05-04 00:51 | 59.66941 | 9.94071 | 18752 ft | 353 kts | 10° |
| 2026-05-04 00:51 | 59.69304 | 9.95390 | 18425 ft | 351 kts | 10° |
| 2026-05-04 00:51 | 59.71650 | 9.96701 | 18098 ft | 349 kts | 10° |
| 2026-05-04 00:51 | 59.73977 | 9.98006 | 17724 ft | 346 kts | 10° |
| 2026-05-04 00:52 | 59.76283 | 9.99299 | 17391 ft | 343 kts | 10° |
| 2026-05-04 00:52 | 59.78572 | 10.00585 | 17051 ft | 341 kts | 10° |
| 2026-05-04 00:52 | 59.80845 | 10.01864 | 16730 ft | 338 kts | 10° |
| 2026-05-04 00:52 | 59.83093 | 10.03130 | 16411 ft | 335 kts | 10° |
| 2026-05-04 00:53 | 59.85323 | 10.04387 | 16090 ft | 331 kts | 10° |
| 2026-05-04 00:53 | 59.87532 | 10.05634 | 15775 ft | 328 kts | 10° |
| 2026-05-04 00:53 | 59.89723 | 10.06873 | 15457 ft | 326 kts | 10° |
| 2026-05-04 00:53 | 59.91895 | 10.08102 | 15150 ft | 324 kts | 10° |
| 2026-05-04 00:54 | 59.94055 | 10.09332 | 14821 ft | 322 kts | 10° |
| 2026-05-04 00:54 | 59.96203 | 10.10563 | 14490 ft | 320 kts | 10° |
| 2026-05-04 00:54 | 59.98337 | 10.11788 | 14179 ft | 318 kts | 10° |
| 2026-05-04 00:54 | 60.00454 | 10.13004 | 13869 ft | 315 kts | 10° |
| 2026-05-04 00:55 | 60.02553 | 10.14211 | 13575 ft | 312 kts | 10° |
| 2026-05-04 00:55 | 60.04635 | 10.15410 | 13230 ft | 310 kts | 10° |
| 2026-05-04 00:55 | 60.06701 | 10.16601 | 12914 ft | 308 kts | 10° |
| 2026-05-04 00:55 | 60.08747 | 10.17782 | 12607 ft | 305 kts | 11° |
| 2026-05-04 00:56 | 60.10780 | 10.18957 | 12301 ft | 303 kts | 11° |
| 2026-05-04 00:56 | 60.12791 | 10.20121 | 12003 ft | 300 kts | 11° |
| 2026-05-04 00:56 | 60.14818 | 10.21294 | 11695 ft | 306 kts | 11° |
| 2026-05-04 00:56 | 60.16845 | 10.22469 | 11314 ft | 309 kts | 11° |
| 2026-05-04 00:57 | 60.18942 | 10.23686 | 11001 ft | 309 kts | 11° |
| 2026-05-04 00:57 | 60.20981 | 10.24870 | 10691 ft | 309 kts | 11° |
| 2026-05-04 00:57 | 60.23042 | 10.26069 | 10357 ft | 308 kts | 12° |
| 2026-05-04 00:57 | 60.25088 | 10.27261 | 10028 ft | 306 kts | 12° |
| 2026-05-04 00:58 | 60.27139 | 10.28457 | 9690 ft | 306 kts | 12° |
| 2026-05-04 00:58 | 60.29175 | 10.29646 | 9327 ft | 304 kts | 12° |
| 2026-05-04 00:58 | 60.31206 | 10.30832 | 8971 ft | 303 kts | 12° |
| 2026-05-04 00:58 | 60.33194 | 10.32109 | 8791 ft | 293 kts | 19° |
| 2026-05-04 00:59 | 60.35010 | 10.33799 | 8793 ft | 286 kts | 21° |
| 2026-05-04 00:59 | 60.36817 | 10.35467 | 8781 ft | 286 kts | 20° |
| 2026-05-04 00:59 | 60.38634 | 10.37120 | 8777 ft | 285 kts | 20° |
| 2026-05-04 00:59 | 60.40442 | 10.38749 | 8777 ft | 285 kts | 20° |
| 2026-05-04 01:00 | 60.42258 | 10.40377 | 8770 ft | 285 kts | 20° |
| 2026-05-04 01:00 | 60.44069 | 10.41998 | 8763 ft | 282 kts | 20° |
| 2026-05-04 01:00 | 60.45819 | 10.43562 | 8769 ft | 269 kts | 19° |
| 2026-05-04 01:00 | 60.47560 | 10.44656 | 8764 ft | 258 kts | 4° |
| 2026-05-04 01:01 | 60.49335 | 10.45241 | 8797 ft | 258 kts | 4° |
| 2026-05-04 01:01 | 60.51109 | 10.45838 | 8767 ft | 258 kts | 4° |
| 2026-05-04 01:01 | 60.52880 | 10.46442 | 8747 ft | 258 kts | 4° |
| 2026-05-04 01:01 | 60.54649 | 10.47027 | 8767 ft | 258 kts | 4° |
| 2026-05-04 01:02 | 60.56422 | 10.47624 | 8776 ft | 259 kts | 5° |
| 2026-05-04 01:02 | 60.58141 | 10.48751 | 8746 ft | 264 kts | 26° |
| 2026-05-04 01:02 | 60.59723 | 10.50690 | 8773 ft | 266 kts | 26° |
| 2026-05-04 01:02 | 60.61323 | 10.52588 | 8750 ft | 266 kts | 26° |
| 2026-05-04 01:03 | 60.62927 | 10.54476 | 8759 ft | 266 kts | 26° |
| 2026-05-04 01:03 | 60.64534 | 10.56357 | 8759 ft | 266 kts | 26° |
| 2026-05-04 01:03 | 60.66139 | 10.58237 | 8756 ft | 267 kts | 27° |
| 2026-05-04 01:03 | 60.67554 | 10.60697 | 8752 ft | 270 kts | 47° |
| 2026-05-04 01:04 | 60.68769 | 10.63643 | 8762 ft | 272 kts | 47° |
| 2026-05-04 01:04 | 60.69997 | 10.66577 | 8756 ft | 272 kts | 47° |
| 2026-05-04 01:04 | 60.71224 | 10.69512 | 8761 ft | 272 kts | 47° |
| 2026-05-04 01:04 | 60.72450 | 10.72448 | 8757 ft | 272 kts | 47° |
| 2026-05-04 01:05 | 60.73669 | 10.75407 | 8753 ft | 272 kts | 51° |
| 2026-05-04 01:05 | 60.74548 | 10.78827 | 8763 ft | 273 kts | 68° |
| 2026-05-04 01:05 | 60.75264 | 10.82439 | 8754 ft | 273 kts | 68° |
| 2026-05-04 01:05 | 60.75614 | 10.86201 | 8560 ft | 270 kts | 96° |
| 2026-05-04 01:06 | 60.75100 | 10.89804 | 8367 ft | 262 kts | 125° |
| 2026-05-04 01:06 | 60.73901 | 10.92480 | 8235 ft | 253 kts | 151° |
| 2026-05-04 01:06 | 60.72336 | 10.93982 | 8063 ft | 247 kts | 167° |
| 2026-05-04 01:06 | 60.70701 | 10.95076 | 7890 ft | 247 kts | 167° |
| 2026-05-04 01:07 | 60.69061 | 10.96097 | 7700 ft | 246 kts | 168° |
| 2026-05-04 01:07 | 60.67419 | 10.97067 | 7526 ft | 246 kts | 169° |
| 2026-05-04 01:07 | 60.65770 | 10.98011 | 7347 ft | 245 kts | 169° |
| 2026-05-04 01:07 | 60.64131 | 10.98932 | 7253 ft | 244 kts | 169° |
| 2026-05-04 01:08 | 60.62489 | 10.99842 | 7158 ft | 245 kts | 169° |
| 2026-05-04 01:08 | 60.60846 | 11.00745 | 6997 ft | 244 kts | 169° |
| 2026-05-04 01:08 | 60.59207 | 11.01640 | 6860 ft | 244 kts | 169° |
| 2026-05-04 01:08 | 60.57563 | 11.02532 | 6678 ft | 244 kts | 169° |
| 2026-05-04 01:09 | 60.55949 | 11.03408 | 6515 ft | 244 kts | 169° |
| 2026-05-04 01:09 | 60.54487 | 11.04199 | 6363 ft | 243 kts | 169° |
| 2026-05-04 01:09 | 60.52889 | 11.05062 | 6192 ft | 244 kts | 169° |
| 2026-05-04 01:09 | 60.51254 | 11.05944 | 5977 ft | 243 kts | 169° |
| 2026-05-04 01:10 | 60.49647 | 11.06809 | 5815 ft | 240 kts | 169° |
| 2026-05-04 01:10 | 60.48053 | 11.07670 | 5637 ft | 235 kts | 169° |
| 2026-05-04 01:10 | 60.46553 | 11.08899 | 5435 ft | 235 kts | 146° |
| 2026-05-04 01:10 | 60.45342 | 11.11095 | 5254 ft | 232 kts | 140° |
| 2026-05-04 01:11 | 60.44158 | 11.13356 | 5112 ft | 234 kts | 140° |
| 2026-05-04 01:11 | 60.42985 | 11.15616 | 4975 ft | 230 kts | 139° |
| 2026-05-04 01:11 | 60.41837 | 11.17826 | 4787 ft | 226 kts | 142° |
| 2026-05-04 01:11 | 60.40482 | 11.19217 | 4476 ft | 218 kts | 176° |
| 2026-05-04 01:12 | 60.39019 | 11.18978 | 4193 ft | 207 kts | 195° |
| 2026-05-04 01:12 | 60.37639 | 11.18382 | 3944 ft | 198 kts | 196° |
| 2026-05-04 01:12 | 60.36318 | 11.17704 | 3716 ft | 195 kts | 198° |
| 2026-05-04 01:12 | 60.35026 | 11.16956 | 3515 ft | 192 kts | 199° |
| 2026-05-04 01:13 | 60.33791 | 11.16233 | 3265 ft | 177 kts | 198° |
| 2026-05-04 01:13 | 60.32632 | 11.15559 | 3019 ft | 172 kts | 198° |
| 2026-05-04 01:13 | 60.31488 | 11.14890 | 2784 ft | 170 kts | 198° |
| 2026-05-04 01:13 | 60.30356 | 11.14235 | 2569 ft | 167 kts | 198° |
| 2026-05-04 01:14 | 60.29270 | 11.13606 | 2334 ft | 160 kts | 197° |
| 2026-05-04 01:14 | 60.28213 | 11.12992 | 2119 ft | 157 kts | 197° |
| 2026-05-04 01:14 | 60.27207 | 11.12409 | 1934 ft | 146 kts | 197° |
| 2026-05-04 01:14 | 60.26250 | 11.11853 | 1693 ft | 141 kts | 197° |
| 2026-05-04 01:15 | 60.25310 | 11.11307 | 1476 ft | 141 kts | 195° |
| 2026-05-04 01:15 | 60.24378 | 11.10767 | 1289 ft | 141 kts | 195° |
| 2026-05-04 01:15 | 60.23418 | 11.10212 | 1094 ft | 141 kts | 195° |
| 2026-05-04 01:15 | 60.22481 | 11.09660 | 888 ft | 140 kts | 195° |
| 2026-05-04 01:16 | 60.21557 | 11.09137 | 725 ft | 138 kts | 195° |
| 2026-05-04 01:16 | 60.20752 | 11.08675 | 682 ft | 91 kts | 196° |
| 2026-05-04 01:16 | 60.20388 | 11.08466 | 680 ft | 20 kts | 196° |
| 2026-05-04 01:16 | 60.20285 | 11.08480 | 678 ft | 13 kts | 140° |
| 2026-05-04 01:17 | 60.20256 | 11.08575 | 679 ft | 2 kts | 106° |
| 2026-05-04 01:17 | 60.20250 | 11.08621 | 679 ft | 5 kts | 106° |
| 2026-05-04 01:17 | 60.20241 | 11.08684 | 681 ft | 4 kts | 106° |
| 2026-05-04 01:17 | 60.20234 | 11.08726 | 681 ft | 2 kts | 106° |
| 2026-05-04 01:18 | 60.20233 | 11.08734 | 682 ft | 0 kts | 106° |
| 2026-05-04 01:18 | 60.20232 | 11.08739 | 683 ft | 2 kts | 110° |
| 2026-05-04 01:18 | 60.20202 | 11.08760 | 683 ft | 7 kts | 189° |
| 2026-05-04 01:18 | 60.20114 | 11.08700 | 682 ft | 19 kts | 197° |
| 2026-05-04 01:19 | 60.20010 | 11.08640 | 682 ft | 17 kts | 196° |
| 2026-05-04 01:19 | 60.19903 | 11.08578 | 680 ft | 14 kts | 196° |
| 2026-05-04 01:19 | 60.19799 | 11.08518 | 679 ft | 17 kts | 196° |
| 2026-05-04 01:19 | 60.19686 | 11.08453 | 678 ft | 16 kts | 196° |
| 2026-05-04 01:20 | 60.19619 | 11.08413 | 680 ft | 12 kts | 196° |
| 2026-05-04 01:20 | 60.19548 | 11.08451 | 679 ft | 13 kts | 113° |
| 2026-05-04 01:20 | 60.19523 | 11.08628 | 679 ft | 15 kts | 106° |
| 2026-05-04 01:20 | 60.19498 | 11.08794 | 680 ft | 10 kts | 105° |
| 2026-05-04 01:21 | 60.19470 | 11.08869 | 686 ft | 5 kts | 161° |
| 2026-05-04 01:21 | 60.19440 | 11.08919 | 687 ft | 6 kts | 113° |
| 2026-05-04 01:21 | 60.19429 | 11.08990 | 685 ft | 4 kts | 108° |
| 2026-05-04 01:21 | 60.19418 | 11.09059 | 683 ft | 5 kts | 112° |
| 2026-05-04 01:22 | 60.19409 | 11.09072 | 685 ft | 1 kts | 167° |
| 2026-05-04 01:22 | 60.19381 | 11.09064 | 686 ft | 3 kts | 194° |
| 2026-05-04 01:22 | 60.19369 | 11.09057 | 685 ft | 3 kts | 195° |
| 2026-05-04 01:22 | 60.19365 | 11.09055 | 685 ft | 0 kts | 195° |